sensor_id;sensor_type;location;lat;lon;timestamp;temperature;humidity
12438;DHT22;6283;51.330;12.374;2022-11-27T00:02:03;4.80;1.00
12438;DHT22;6283;51.330;12.374;2022-11-27T00:04:28;4.80;1.00
12438;DHT22;6283;51.330;12.374;2022-11-27T00:06:54;4.90;1.00
12438;DHT22;6283;51.330;12.374;2022-11-27T00:09:19;4.80;1.00
12438;DHT22;6283;51.330;12.374;2022-11-27T00:11:45;4.90;1.00
12438;DHT22;6283;51.330;12.374;2022-11-27T00:14:13;4.50;1.00
12438;DHT22;6283;51.330;12.374;2022-11-27T00:16:39;4.60;1.00
12438;DHT22;6283;51.330;12.374;2022-11-27T00:19:05;4.50;1.00
12438;DHT22;6283;51.330;12.374;2022-11-27T00:21:33;4.70;1.00
12438;DHT22;6283;51.330;12.374;2022-11-27T00:24:01;4.70;1.00
12438;DHT22;6283;51.330;12.374;2022-11-27T00:26:28;4.90;1.00
12438;DHT22;6283;51.330;12.374;2022-11-27T00:28:54;4.60;1.00
12438;DHT22;6283;51.330;12.374;2022-11-27T00:31:30;4.40;1.00
12438;DHT22;6283;51.330;12.374;2022-11-27T00:34:01;4.50;1.00
12438;DHT22;6283;51.330;12.374;2022-11-27T00:36:29;4.40;1.00
12438;DHT22;6283;51.330;12.374;2022-11-27T00:38:55;4.50;1.00
12438;DHT22;6283;51.330;12.374;2022-11-27T00:41:23;4.70;1.00
12438;DHT22;6283;51.330;12.374;2022-11-27T00:43:49;4.40;1.00
12438;DHT22;6283;51.330;12.374;2022-11-27T00:46:16;4.50;1.00
12438;DHT22;6283;51.330;12.374;2022-11-27T00:48:43;4.60;1.00
12438;DHT22;6283;51.330;12.374;2022-11-27T00:51:12;4.50;1.00
12438;DHT22;6283;51.330;12.374;2022-11-27T00:53:38;4.70;1.00
12438;DHT22;6283;51.330;12.374;2022-11-27T00:56:04;4.40;1.00
12438;DHT22;6283;51.330;12.374;2022-11-27T00:58:30;4.40;1.00
12438;DHT22;6283;51.330;12.374;2022-11-27T01:00:57;4.30;1.00
12438;DHT22;6283;51.330;12.374;2022-11-27T01:03:24;4.40;1.00
12438;DHT22;6283;51.330;12.374;2022-11-27T01:05:50;4.40;1.00
12438;DHT22;6283;51.330;12.374;2022-11-27T01:08:16;4.50;1.00
12438;DHT22;6283;51.330;12.374;2022-11-27T01:10:55;4.40;1.00
12438;DHT22;6283;51.330;12.374;2022-11-27T01:13:30;4.40;1.00
12438;DHT22;6283;51.330;12.374;2022-11-27T01:16:09;4.30;1.00
12438;DHT22;6283;51.330;12.374;2022-11-27T01:18:37;4.30;1.00
12438;DHT22;6283;51.330;12.374;2022-11-27T01:21:03;4.30;1.00
12438;DHT22;6283;51.330;12.374;2022-11-27T01:23:30;4.10;1.00
12438;DHT22;6283;51.330;12.374;2022-11-27T01:25:55;4.20;1.00
12438;DHT22;6283;51.330;12.374;2022-11-27T01:28:22;4.20;1.00
12438;DHT22;6283;51.330;12.374;2022-11-27T01:30:49;4.10;1.00
12438;DHT22;6283;51.330;12.374;2022-11-27T01:33:15;4.20;1.00
12438;DHT22;6283;51.330;12.374;2022-11-27T01:35:40;4.20;1.00
12438;DHT22;6283;51.330;12.374;2022-11-27T01:38:06;4.20;1.00
12438;DHT22;6283;51.330;12.374;2022-11-27T01:40:32;4.10;1.00
12438;DHT22;6283;51.330;12.374;2022-11-27T01:42:57;4.30;1.00
12438;DHT22;6283;51.330;12.374;2022-11-27T01:45:23;4.20;1.00
12438;DHT22;6283;51.330;12.374;2022-11-27T01:47:53;4.20;1.00
12438;DHT22;6283;51.330;12.374;2022-11-27T01:50:29;4.20;1.00
12438;DHT22;6283;51.330;12.374;2022-11-27T01:53:00;4.20;1.00
12438;DHT22;6283;51.330;12.374;2022-11-27T01:57:59;4.30;1.00
12438;DHT22;6283;51.330;12.374;2022-11-27T02:00:26;4.10;1.00
12438;DHT22;6283;51.330;12.374;2022-11-27T02:02:51;4.30;1.00
12438;DHT22;6283;51.330;12.374;2022-11-27T02:05:20;4.10;1.00
12438;DHT22;6283;51.330;12.374;2022-11-27T02:07:47;4.20;1.00
12438;DHT22;6283;51.330;12.374;2022-11-27T02:10:13;4.20;1.00
12438;DHT22;6283;51.330;12.374;2022-11-27T02:13:04;4.20;1.00
12438;DHT22;6283;51.330;12.374;2022-11-27T02:15:45;3.90;1.00
12438;DHT22;6283;51.330;12.374;2022-11-27T02:18:24;4.20;1.00
12438;DHT22;6283;51.330;12.374;2022-11-27T02:26:49;3.80;1.00
12438;DHT22;6283;51.330;12.374;2022-11-27T02:29:23;3.80;1.00
12438;DHT22;6283;51.330;12.374;2022-11-27T02:35:18;3.90;1.00
12438;DHT22;6283;51.330;12.374;2022-11-27T02:37:52;3.90;1.00
12438;DHT22;6283;51.330;12.374;2022-11-27T02:42:56;3.80;1.00
12438;DHT22;6283;51.330;12.374;2022-11-27T02:45:30;3.90;1.00
12438;DHT22;6283;51.330;12.374;2022-11-27T02:47:58;4.00;1.00
12438;DHT22;6283;51.330;12.374;2022-11-27T02:50:25;3.70;1.00
12438;DHT22;6283;51.330;12.374;2022-11-27T02:52:58;4.00;1.00
12438;DHT22;6283;51.330;12.374;2022-11-27T02:55:27;3.90;1.00
12438;DHT22;6283;51.330;12.374;2022-11-27T02:57:55;3.90;1.00
12438;DHT22;6283;51.330;12.374;2022-11-27T03:00:21;4.00;1.00
12438;DHT22;6283;51.330;12.374;2022-11-27T03:02:54;3.70;1.00
12438;DHT22;6283;51.330;12.374;2022-11-27T03:05:25;3.90;1.00
12438;DHT22;6283;51.330;12.374;2022-11-27T03:08:00;3.90;1.00
12438;DHT22;6283;51.330;12.374;2022-11-27T03:10:33;3.80;1.00
12438;DHT22;6283;51.330;12.374;2022-11-27T03:13:02;3.80;1.00
12438;DHT22;6283;51.330;12.374;2022-11-27T03:15:39;3.90;1.00
12438;DHT22;6283;51.330;12.374;2022-11-27T03:18:23;3.90;1.00
12438;DHT22;6283;51.330;12.374;2022-11-27T03:20:57;3.70;1.00
12438;DHT22;6283;51.330;12.374;2022-11-27T03:23:26;3.80;1.00
12438;DHT22;6283;51.330;12.374;2022-11-27T03:25:52;3.50;1.00
12438;DHT22;6283;51.330;12.374;2022-11-27T03:28:18;3.80;1.00
12438;DHT22;6283;51.330;12.374;2022-11-27T03:30:44;3.40;1.00
12438;DHT22;6283;51.330;12.374;2022-11-27T03:33:09;3.70;1.00
12438;DHT22;6283;51.330;12.374;2022-11-27T03:35:36;3.40;1.00
12438;DHT22;6283;51.330;12.374;2022-11-27T03:38:01;3.60;1.00
12438;DHT22;6283;51.330;12.374;2022-11-27T03:40:32;3.80;1.00
12438;DHT22;6283;51.330;12.374;2022-11-27T03:43:11;3.70;1.00
12438;DHT22;6283;51.330;12.374;2022-11-27T03:48:46;3.70;1.00
12438;DHT22;6283;51.330;12.374;2022-11-27T03:51:38;3.50;1.00
12438;DHT22;6283;51.330;12.374;2022-11-27T04:01:40;3.70;1.00
12438;DHT22;6283;51.330;12.374;2022-11-27T04:04:06;3.70;1.00
12438;DHT22;6283;51.330;12.374;2022-11-27T04:06:32;3.40;1.00
12438;DHT22;6283;51.330;12.374;2022-11-27T04:08:57;3.70;1.00
12438;DHT22;6283;51.330;12.374;2022-11-27T04:11:23;3.70;1.00
12438;DHT22;6283;51.330;12.374;2022-11-27T04:13:49;3.40;1.00
12438;DHT22;6283;51.330;12.374;2022-11-27T04:16:17;3.70;1.00
12438;DHT22;6283;51.330;12.374;2022-11-27T04:18:42;3.60;1.00
12438;DHT22;6283;51.330;12.374;2022-11-27T04:21:08;3.40;1.00
12438;DHT22;6283;51.330;12.374;2022-11-27T04:23:37;3.50;1.00
12438;DHT22;6283;51.330;12.374;2022-11-27T04:26:03;3.50;1.00
12438;DHT22;6283;51.330;12.374;2022-11-27T04:28:29;3.50;1.00
12438;DHT22;6283;51.330;12.374;2022-11-27T04:30:55;3.50;1.00
12438;DHT22;6283;51.330;12.374;2022-11-27T04:33:21;3.50;1.00
12438;DHT22;6283;51.330;12.374;2022-11-27T04:35:48;3.20;1.00
12438;DHT22;6283;51.330;12.374;2022-11-27T04:38:13;3.40;1.00
12438;DHT22;6283;51.330;12.374;2022-11-27T04:40:39;3.40;1.00
12438;DHT22;6283;51.330;12.374;2022-11-27T04:43:05;3.60;1.00
12438;DHT22;6283;51.330;12.374;2022-11-27T04:45:31;3.60;1.00
12438;DHT22;6283;51.330;12.374;2022-11-27T04:47:57;3.50;1.00
12438;DHT22;6283;51.330;12.374;2022-11-27T04:50:23;3.60;1.00
12438;DHT22;6283;51.330;12.374;2022-11-27T04:52:48;3.70;1.00
12438;DHT22;6283;51.330;12.374;2022-11-27T04:55:14;3.60;1.00
12438;DHT22;6283;51.330;12.374;2022-11-27T04:57:40;3.60;1.00
12438;DHT22;6283;51.330;12.374;2022-11-27T05:00:06;3.60;1.00
12438;DHT22;6283;51.330;12.374;2022-11-27T05:02:32;3.60;1.00
12438;DHT22;6283;51.330;12.374;2022-11-27T05:04:57;3.40;1.00
12438;DHT22;6283;51.330;12.374;2022-11-27T05:07:23;3.70;1.00
12438;DHT22;6283;51.330;12.374;2022-11-27T05:09:49;3.40;1.00
12438;DHT22;6283;51.330;12.374;2022-11-27T05:12:15;3.30;1.00
12438;DHT22;6283;51.330;12.374;2022-11-27T05:14:41;3.40;1.00
12438;DHT22;6283;51.330;12.374;2022-11-27T05:17:07;3.60;1.00
12438;DHT22;6283;51.330;12.374;2022-11-27T05:19:33;3.30;1.00
12438;DHT22;6283;51.330;12.374;2022-11-27T05:21:59;3.50;1.00
12438;DHT22;6283;51.330;12.374;2022-11-27T05:24:28;3.30;1.00
12438;DHT22;6283;51.330;12.374;2022-11-27T05:26:54;3.40;1.00
12438;DHT22;6283;51.330;12.374;2022-11-27T05:29:21;3.60;1.00
12438;DHT22;6283;51.330;12.374;2022-11-27T05:31:46;3.40;1.00
12438;DHT22;6283;51.330;12.374;2022-11-27T05:34:12;3.70;1.00
12438;DHT22;6283;51.330;12.374;2022-11-27T05:36:38;3.60;1.00
12438;DHT22;6283;51.330;12.374;2022-11-27T05:39:05;3.60;1.00
12438;DHT22;6283;51.330;12.374;2022-11-27T05:41:32;3.40;1.00
12438;DHT22;6283;51.330;12.374;2022-11-27T05:43:58;3.60;1.00
12438;DHT22;6283;51.330;12.374;2022-11-27T05:46:23;3.40;1.00
12438;DHT22;6283;51.330;12.374;2022-11-27T05:48:51;3.50;1.00
12438;DHT22;6283;51.330;12.374;2022-11-27T05:51:17;3.50;1.00
12438;DHT22;6283;51.330;12.374;2022-11-27T05:53:44;3.30;1.00
12438;DHT22;6283;51.330;12.374;2022-11-27T05:56:12;3.60;1.00
12438;DHT22;6283;51.330;12.374;2022-11-27T05:58:39;3.40;1.00
12438;DHT22;6283;51.330;12.374;2022-11-27T06:01:06;3.40;1.00
12438;DHT22;6283;51.330;12.374;2022-11-27T06:03:32;3.40;1.00
12438;DHT22;6283;51.330;12.374;2022-11-27T06:05:58;3.40;1.00
12438;DHT22;6283;51.330;12.374;2022-11-27T06:08:23;3.40;1.00
12438;DHT22;6283;51.330;12.374;2022-11-27T06:10:50;3.30;1.00
12438;DHT22;6283;51.330;12.374;2022-11-27T06:13:15;3.30;1.00
12438;DHT22;6283;51.330;12.374;2022-11-27T06:15:41;3.50;1.00
12438;DHT22;6283;51.330;12.374;2022-11-27T06:18:09;3.40;1.00
12438;DHT22;6283;51.330;12.374;2022-11-27T06:20:35;3.60;1.00
12438;DHT22;6283;51.330;12.374;2022-11-27T06:23:00;3.60;1.00
12438;DHT22;6283;51.330;12.374;2022-11-27T06:25:26;3.30;1.00
12438;DHT22;6283;51.330;12.374;2022-11-27T06:27:52;3.50;1.00
12438;DHT22;6283;51.330;12.374;2022-11-27T06:30:18;3.30;1.00
12438;DHT22;6283;51.330;12.374;2022-11-27T06:32:43;3.30;1.00
12438;DHT22;6283;51.330;12.374;2022-11-27T06:35:09;3.20;1.00
12438;DHT22;6283;51.330;12.374;2022-11-27T06:37:35;3.30;1.00
12438;DHT22;6283;51.330;12.374;2022-11-27T06:40:00;3.10;1.00
12438;DHT22;6283;51.330;12.374;2022-11-27T06:42:29;3.20;1.00
12438;DHT22;6283;51.330;12.374;2022-11-27T06:44:56;3.40;1.00
12438;DHT22;6283;51.330;12.374;2022-11-27T06:47:21;3.20;1.00
12438;DHT22;6283;51.330;12.374;2022-11-27T06:49:47;3.30;1.00
12438;DHT22;6283;51.330;12.374;2022-11-27T06:52:13;3.20;1.00
12438;DHT22;6283;51.330;12.374;2022-11-27T06:54:38;3.20;1.00
12438;DHT22;6283;51.330;12.374;2022-11-27T06:57:04;3.20;1.00
12438;DHT22;6283;51.330;12.374;2022-11-27T06:59:30;3.10;1.00
12438;DHT22;6283;51.330;12.374;2022-11-27T07:01:55;3.20;1.00
12438;DHT22;6283;51.330;12.374;2022-11-27T07:04:21;3.10;1.00
12438;DHT22;6283;51.330;12.374;2022-11-27T07:06:46;3.40;1.00
12438;DHT22;6283;51.330;12.374;2022-11-27T07:09:12;3.10;1.00
12438;DHT22;6283;51.330;12.374;2022-11-27T07:11:39;3.10;1.00
12438;DHT22;6283;51.330;12.374;2022-11-27T07:14:05;3.30;1.00
12438;DHT22;6283;51.330;12.374;2022-11-27T07:16:33;3.30;1.00
12438;DHT22;6283;51.330;12.374;2022-11-27T07:19:04;3.30;1.00
12438;DHT22;6283;51.330;12.374;2022-11-27T07:21:30;3.40;1.00
12438;DHT22;6283;51.330;12.374;2022-11-27T07:23:56;3.20;1.00
12438;DHT22;6283;51.330;12.374;2022-11-27T07:26:25;3.30;1.00
12438;DHT22;6283;51.330;12.374;2022-11-27T07:28:51;3.30;1.00
12438;DHT22;6283;51.330;12.374;2022-11-27T07:31:21;3.50;1.00
12438;DHT22;6283;51.330;12.374;2022-11-27T07:33:47;3.30;1.00
12438;DHT22;6283;51.330;12.374;2022-11-27T07:36:18;3.70;1.00
12438;DHT22;6283;51.330;12.374;2022-11-27T07:38:44;3.50;1.00
12438;DHT22;6283;51.330;12.374;2022-11-27T07:41:11;3.70;1.00
12438;DHT22;6283;51.330;12.374;2022-11-27T07:43:37;3.40;1.00
12438;DHT22;6283;51.330;12.374;2022-11-27T07:46:04;3.50;1.00
12438;DHT22;6283;51.330;12.374;2022-11-27T07:48:30;3.70;1.00
12438;DHT22;6283;51.330;12.374;2022-11-27T07:50:56;3.50;1.00
12438;DHT22;6283;51.330;12.374;2022-11-27T07:53:21;3.80;1.00
12438;DHT22;6283;51.330;12.374;2022-11-27T07:55:47;3.90;1.00
12438;DHT22;6283;51.330;12.374;2022-11-27T07:58:13;3.70;1.00
12438;DHT22;6283;51.330;12.374;2022-11-27T08:00:38;3.70;1.00
12438;DHT22;6283;51.330;12.374;2022-11-27T08:03:04;4.00;1.00
12438;DHT22;6283;51.330;12.374;2022-11-27T08:05:33;4.00;1.00
12438;DHT22;6283;51.330;12.374;2022-11-27T08:07:59;3.90;1.00
12438;DHT22;6283;51.330;12.374;2022-11-27T08:10:26;3.70;1.00
12438;DHT22;6283;51.330;12.374;2022-11-27T08:12:51;3.70;1.00
12438;DHT22;6283;51.330;12.374;2022-11-27T08:15:17;4.10;1.00
12438;DHT22;6283;51.330;12.374;2022-11-27T08:17:43;4.00;1.00
12438;DHT22;6283;51.330;12.374;2022-11-27T08:20:09;4.10;1.00
12438;DHT22;6283;51.330;12.374;2022-11-27T08:22:36;4.10;1.00
12438;DHT22;6283;51.330;12.374;2022-11-27T08:25:02;4.20;1.00
12438;DHT22;6283;51.330;12.374;2022-11-27T08:27:30;4.30;1.00
12438;DHT22;6283;51.330;12.374;2022-11-27T08:29:58;4.20;1.00
12438;DHT22;6283;51.330;12.374;2022-11-27T08:32:23;4.10;1.00
12438;DHT22;6283;51.330;12.374;2022-11-27T08:34:49;4.30;1.00
12438;DHT22;6283;51.330;12.374;2022-11-27T08:37:15;4.30;1.00
12438;DHT22;6283;51.330;12.374;2022-11-27T08:39:40;4.40;1.00
12438;DHT22;6283;51.330;12.374;2022-11-27T08:42:06;4.40;1.00
12438;DHT22;6283;51.330;12.374;2022-11-27T08:44:32;4.50;1.00
12438;DHT22;6283;51.330;12.374;2022-11-27T08:46:57;4.50;1.00
12438;DHT22;6283;51.330;12.374;2022-11-27T08:49:23;4.30;1.00
12438;DHT22;6283;51.330;12.374;2022-11-27T08:51:49;4.50;1.00
12438;DHT22;6283;51.330;12.374;2022-11-27T08:54:14;4.60;1.00
12438;DHT22;6283;51.330;12.374;2022-11-27T08:56:40;4.50;1.00
12438;DHT22;6283;51.330;12.374;2022-11-27T08:59:06;4.30;1.00
12438;DHT22;6283;51.330;12.374;2022-11-27T09:01:32;4.40;1.00
12438;DHT22;6283;51.330;12.374;2022-11-27T09:03:58;4.80;1.00
12438;DHT22;6283;51.330;12.374;2022-11-27T09:06:27;4.70;1.00
12438;DHT22;6283;51.330;12.374;2022-11-27T09:09:00;4.50;1.00
12438;DHT22;6283;51.330;12.374;2022-11-27T09:11:28;4.70;1.00
12438;DHT22;6283;51.330;12.374;2022-11-27T09:13:54;4.80;1.00
12438;DHT22;6283;51.330;12.374;2022-11-27T09:16:21;4.80;1.00
12438;DHT22;6283;51.330;12.374;2022-11-27T09:18:49;5.10;1.00
12438;DHT22;6283;51.330;12.374;2022-11-27T09:21:17;4.80;1.00
12438;DHT22;6283;51.330;12.374;2022-11-27T09:23:43;4.80;1.00
12438;DHT22;6283;51.330;12.374;2022-11-27T09:26:12;5.00;1.00
12438;DHT22;6283;51.330;12.374;2022-11-27T09:28:38;5.00;1.00
12438;DHT22;6283;51.330;12.374;2022-11-27T09:31:06;5.00;1.00
12438;DHT22;6283;51.330;12.374;2022-11-27T09:33:33;5.00;1.00
12438;DHT22;6283;51.330;12.374;2022-11-27T09:36:06;5.40;1.00
12438;DHT22;6283;51.330;12.374;2022-11-27T09:38:32;5.30;1.00
12438;DHT22;6283;51.330;12.374;2022-11-27T09:43:56;5.50;1.00
12438;DHT22;6283;51.330;12.374;2022-11-27T09:46:33;5.50;1.00
12438;DHT22;6283;51.330;12.374;2022-11-27T09:49:07;5.70;1.00
12438;DHT22;6283;51.330;12.374;2022-11-27T09:51:43;5.60;1.00
12438;DHT22;6283;51.330;12.374;2022-11-27T09:54:35;5.80;1.00
12438;DHT22;6283;51.330;12.374;2022-11-27T09:57:02;5.80;1.00
12438;DHT22;6283;51.330;12.374;2022-11-27T09:59:43;5.70;1.00
12438;DHT22;6283;51.330;12.374;2022-11-27T10:02:24;5.80;1.00
12438;DHT22;6283;51.330;12.374;2022-11-27T10:04:51;6.00;1.00
12438;DHT22;6283;51.330;12.374;2022-11-27T10:13:35;6.40;1.00
12438;DHT22;6283;51.330;12.374;2022-11-27T10:18:55;6.70;1.00
12438;DHT22;6283;51.330;12.374;2022-11-27T10:26:35;6.70;1.00
12438;DHT22;6283;51.330;12.374;2022-11-27T10:31:47;6.60;1.00
12438;DHT22;6283;51.330;12.374;2022-11-27T10:37:28;7.00;1.00
12438;DHT22;6283;51.330;12.374;2022-11-27T10:42:39;7.10;1.00
12438;DHT22;6283;51.330;12.374;2022-11-27T10:45:24;7.10;1.00
12438;DHT22;6283;51.330;12.374;2022-11-27T10:47:52;7.20;1.00
12438;DHT22;6283;51.330;12.374;2022-11-27T10:50:19;7.30;1.00
12438;DHT22;6283;51.330;12.374;2022-11-27T10:52:59;7.40;1.00
12438;DHT22;6283;51.330;12.374;2022-11-27T11:00:42;7.40;1.00
12438;DHT22;6283;51.330;12.374;2022-11-27T11:03:15;7.40;1.00
12438;DHT22;6283;51.330;12.374;2022-11-27T11:05:41;7.60;1.00
12438;DHT22;6283;51.330;12.374;2022-11-27T11:08:18;7.60;1.00
12438;DHT22;6283;51.330;12.374;2022-11-27T11:10:58;7.70;1.00
12438;DHT22;6283;51.330;12.374;2022-11-27T11:13:31;8.10;1.00
12438;DHT22;6283;51.330;12.374;2022-11-27T11:18:49;8.40;1.00
12438;DHT22;6283;51.330;12.374;2022-11-27T11:21:32;8.70;1.00
12438;DHT22;6283;51.330;12.374;2022-11-27T11:26:38;8.60;1.00
12438;DHT22;6283;51.330;12.374;2022-11-27T11:29:16;8.70;1.00
12438;DHT22;6283;51.330;12.374;2022-11-27T11:31:43;8.70;1.00
12438;DHT22;6283;51.330;12.374;2022-11-27T11:34:22;9.10;1.00
12438;DHT22;6283;51.330;12.374;2022-11-27T11:37:03;9.20;1.00
12438;DHT22;6283;51.330;12.374;2022-11-27T11:39:33;9.40;1.00
12438;DHT22;6283;51.330;12.374;2022-11-27T11:42:50;9.30;1.00
12438;DHT22;6283;51.330;12.374;2022-11-27T11:47:59;9.80;1.00
12438;DHT22;6283;51.330;12.374;2022-11-27T11:51:02;10.40;1.00
12438;DHT22;6283;51.330;12.374;2022-11-27T11:53:38;10.60;1.00
12438;DHT22;6283;51.330;12.374;2022-11-27T12:04:01;10.80;1.00
12438;DHT22;6283;51.330;12.374;2022-11-27T12:06:54;10.70;1.00
12438;DHT22;6283;51.330;12.374;2022-11-27T12:15:01;10.80;1.00
12438;DHT22;6283;51.330;12.374;2022-11-27T12:22:42;11.40;1.00
12438;DHT22;6283;51.330;12.374;2022-11-27T12:30:52;11.80;1.00
12438;DHT22;6283;51.330;12.374;2022-11-27T12:39:31;12.50;1.00
12438;DHT22;6283;51.330;12.374;2022-11-27T12:42:23;12.60;1.00
12438;DHT22;6283;51.330;12.374;2022-11-27T12:45:03;12.80;1.00
12438;DHT22;6283;51.330;12.374;2022-11-27T12:50:40;12.70;1.00
12438;DHT22;6283;51.330;12.374;2022-11-27T12:53:32;12.60;1.00
12438;DHT22;6283;51.330;12.374;2022-11-27T12:58:49;12.60;1.00
12438;DHT22;6283;51.330;12.374;2022-11-27T13:01:25;12.90;1.00
12438;DHT22;6283;51.330;12.374;2022-11-27T13:04:09;12.80;1.00
12438;DHT22;6283;51.330;12.374;2022-11-27T13:06:56;12.70;1.00
12438;DHT22;6283;51.330;12.374;2022-11-27T13:09:46;12.10;1.00
12438;DHT22;6283;51.330;12.374;2022-11-27T13:12:22;12.40;1.00
12438;DHT22;6283;51.330;12.374;2022-11-27T13:14:57;12.10;1.00
12438;DHT22;6283;51.330;12.374;2022-11-27T13:17:35;12.20;1.00
12438;DHT22;6283;51.330;12.374;2022-11-27T13:20:02;12.50;1.00
12438;DHT22;6283;51.330;12.374;2022-11-27T13:22:31;12.30;1.00
12438;DHT22;6283;51.330;12.374;2022-11-27T13:25:01;12.40;1.00
12438;DHT22;6283;51.330;12.374;2022-11-27T13:27:29;12.30;1.00
12438;DHT22;6283;51.330;12.374;2022-11-27T13:30:05;12.30;1.00
12438;DHT22;6283;51.330;12.374;2022-11-27T13:32:32;12.40;1.00
12438;DHT22;6283;51.330;12.374;2022-11-27T13:35:03;12.60;1.00
12438;DHT22;6283;51.330;12.374;2022-11-27T13:37:39;12.50;1.00
12438;DHT22;6283;51.330;12.374;2022-11-27T13:40:12;12.70;1.00
12438;DHT22;6283;51.330;12.374;2022-11-27T13:42:50;12.50;1.00
12438;DHT22;6283;51.330;12.374;2022-11-27T13:45:28;12.80;1.00
12438;DHT22;6283;51.330;12.374;2022-11-27T13:47:57;12.60;1.00
12438;DHT22;6283;51.330;12.374;2022-11-27T13:50:25;12.70;1.00
12438;DHT22;6283;51.330;12.374;2022-11-27T13:53:02;12.90;1.00
12438;DHT22;6283;51.330;12.374;2022-11-27T13:55:30;13.00;1.00
12438;DHT22;6283;51.330;12.374;2022-11-27T13:57:57;12.90;1.00
12438;DHT22;6283;51.330;12.374;2022-11-27T14:00:50;12.70;1.00
12438;DHT22;6283;51.330;12.374;2022-11-27T14:03:25;12.50;1.00
12438;DHT22;6283;51.330;12.374;2022-11-27T14:05:51;12.40;1.00
12438;DHT22;6283;51.330;12.374;2022-11-27T14:10:54;11.90;1.00
12438;DHT22;6283;51.330;12.374;2022-11-27T14:13:21;11.70;1.00
12438;DHT22;6283;51.330;12.374;2022-11-27T14:15:57;11.40;1.00
12438;DHT22;6283;51.330;12.374;2022-11-27T14:18:26;11.30;1.00
12438;DHT22;6283;51.330;12.374;2022-11-27T14:20:57;11.30;1.00
12438;DHT22;6283;51.330;12.374;2022-11-27T14:28:40;11.00;1.00
12438;DHT22;6283;51.330;12.374;2022-11-27T14:31:26;10.80;1.00
12438;DHT22;6283;51.330;12.374;2022-11-27T14:33:52;10.90;1.00
12438;DHT22;6283;51.330;12.374;2022-11-27T14:36:26;10.60;1.00
12438;DHT22;6283;51.330;12.374;2022-11-27T14:38:55;10.30;1.00
12438;DHT22;6283;51.330;12.374;2022-11-27T14:41:23;10.50;1.00
12438;DHT22;6283;51.330;12.374;2022-11-27T14:44:03;10.00;1.00
12438;DHT22;6283;51.330;12.374;2022-11-27T14:46:34;9.90;1.00
12438;DHT22;6283;51.330;12.374;2022-11-27T14:49:00;9.90;1.00
12438;DHT22;6283;51.330;12.374;2022-11-27T14:51:28;10.00;1.00
12438;DHT22;6283;51.330;12.374;2022-11-27T14:54:25;9.50;1.00
12438;DHT22;6283;51.330;12.374;2022-11-27T14:56:52;9.50;1.00
12438;DHT22;6283;51.330;12.374;2022-11-27T14:59:21;9.70;1.00
12438;DHT22;6283;51.330;12.374;2022-11-27T15:02:03;9.50;1.00
12438;DHT22;6283;51.330;12.374;2022-11-27T15:04:40;9.30;1.00
12438;DHT22;6283;51.330;12.374;2022-11-27T15:07:14;9.40;1.00
12438;DHT22;6283;51.330;12.374;2022-11-27T15:09:48;9.30;1.00
12438;DHT22;6283;51.330;12.374;2022-11-27T15:12:28;9.10;1.00
12438;DHT22;6283;51.330;12.374;2022-11-27T15:15:05;9.30;1.00
12438;DHT22;6283;51.330;12.374;2022-11-27T15:17:34;8.90;1.00
12438;DHT22;6283;51.330;12.374;2022-11-27T15:20:03;8.90;1.00
12438;DHT22;6283;51.330;12.374;2022-11-27T15:22:29;9.00;1.00
12438;DHT22;6283;51.330;12.374;2022-11-27T15:24:59;8.90;1.00
12438;DHT22;6283;51.330;12.374;2022-11-27T15:27:25;8.90;1.00
12438;DHT22;6283;51.330;12.374;2022-11-27T15:32:17;8.70;1.00
12438;DHT22;6283;51.330;12.374;2022-11-27T15:34:43;9.00;1.00
12438;DHT22;6283;51.330;12.374;2022-11-27T15:37:30;8.90;1.00
12438;DHT22;6283;51.330;12.374;2022-11-27T15:39:58;8.70;1.00
12438;DHT22;6283;51.330;12.374;2022-11-27T15:42:26;8.50;1.00
12438;DHT22;6283;51.330;12.374;2022-11-27T15:44:53;8.70;1.00
12438;DHT22;6283;51.330;12.374;2022-11-27T15:49:44;8.60;1.00
12438;DHT22;6283;51.330;12.374;2022-11-27T15:52:10;8.50;1.00
12438;DHT22;6283;51.330;12.374;2022-11-27T15:54:36;8.40;1.00
12438;DHT22;6283;51.330;12.374;2022-11-27T15:57:01;8.50;1.00
12438;DHT22;6283;51.330;12.374;2022-11-27T15:59:27;8.50;1.00
12438;DHT22;6283;51.330;12.374;2022-11-27T16:01:53;8.40;1.00
12438;DHT22;6283;51.330;12.374;2022-11-27T16:04:20;8.60;1.00
12438;DHT22;6283;51.330;12.374;2022-11-27T16:06:46;8.40;1.00
12438;DHT22;6283;51.330;12.374;2022-11-27T16:09:11;8.40;1.00
12438;DHT22;6283;51.330;12.374;2022-11-27T16:11:37;8.40;1.00
12438;DHT22;6283;51.330;12.374;2022-11-27T16:14:02;8.20;1.00
12438;DHT22;6283;51.330;12.374;2022-11-27T16:16:28;8.10;1.00
12438;DHT22;6283;51.330;12.374;2022-11-27T16:19:01;8.30;1.00
12438;DHT22;6283;51.330;12.374;2022-11-27T16:21:29;8.40;1.00
12438;DHT22;6283;51.330;12.374;2022-11-27T16:23:57;8.30;1.00
12438;DHT22;6283;51.330;12.374;2022-11-27T16:26:23;8.40;1.00
12438;DHT22;6283;51.330;12.374;2022-11-27T16:28:48;8.40;1.00
12438;DHT22;6283;51.330;12.374;2022-11-27T16:31:14;8.20;1.00
12438;DHT22;6283;51.330;12.374;2022-11-27T16:33:40;8.50;1.00
12438;DHT22;6283;51.330;12.374;2022-11-27T16:36:11;8.30;1.00
12438;DHT22;6283;51.330;12.374;2022-11-27T16:38:37;8.10;1.00
12438;DHT22;6283;51.330;12.374;2022-11-27T16:41:06;8.20;1.00
12438;DHT22;6283;51.330;12.374;2022-11-27T16:43:37;8.10;1.00
12438;DHT22;6283;51.330;12.374;2022-11-27T16:46:14;8.00;1.00
12438;DHT22;6283;51.330;12.374;2022-11-27T16:48:41;8.30;1.00
12438;DHT22;6283;51.330;12.374;2022-11-27T16:51:11;8.20;1.00
12438;DHT22;6283;51.330;12.374;2022-11-27T16:53:39;8.30;1.00
12438;DHT22;6283;51.330;12.374;2022-11-27T16:56:06;8.30;1.00
12438;DHT22;6283;51.330;12.374;2022-11-27T16:58:37;8.20;1.00
12438;DHT22;6283;51.330;12.374;2022-11-27T17:01:07;8.00;1.00
12438;DHT22;6283;51.330;12.374;2022-11-27T17:03:34;8.30;1.00
12438;DHT22;6283;51.330;12.374;2022-11-27T17:05:59;8.20;1.00
12438;DHT22;6283;51.330;12.374;2022-11-27T17:08:25;8.00;1.00
12438;DHT22;6283;51.330;12.374;2022-11-27T17:10:51;8.20;1.00
12438;DHT22;6283;51.330;12.374;2022-11-27T17:13:17;7.90;1.00
12438;DHT22;6283;51.330;12.374;2022-11-27T17:15:43;7.80;1.00
12438;DHT22;6283;51.330;12.374;2022-11-27T17:18:09;8.00;1.00
12438;DHT22;6283;51.330;12.374;2022-11-27T17:20:35;8.00;1.00
12438;DHT22;6283;51.330;12.374;2022-11-27T17:23:01;8.10;1.00
12438;DHT22;6283;51.330;12.374;2022-11-27T17:25:29;7.90;1.00
12438;DHT22;6283;51.330;12.374;2022-11-27T17:27:54;7.80;1.00
12438;DHT22;6283;51.330;12.374;2022-11-27T17:30:20;7.80;1.00
12438;DHT22;6283;51.330;12.374;2022-11-27T17:32:45;7.80;1.00
12438;DHT22;6283;51.330;12.374;2022-11-27T17:35:11;7.70;1.00
12438;DHT22;6283;51.330;12.374;2022-11-27T17:37:37;7.70;1.00
12438;DHT22;6283;51.330;12.374;2022-11-27T17:40:03;7.60;1.00
12438;DHT22;6283;51.330;12.374;2022-11-27T17:42:28;7.60;1.00
12438;DHT22;6283;51.330;12.374;2022-11-27T17:44:54;7.70;1.00
12438;DHT22;6283;51.330;12.374;2022-11-27T17:47:20;7.60;1.00
12438;DHT22;6283;51.330;12.374;2022-11-27T17:49:46;7.50;1.00
12438;DHT22;6283;51.330;12.374;2022-11-27T17:52:12;7.60;1.00
12438;DHT22;6283;51.330;12.374;2022-11-27T17:54:37;7.60;1.00
12438;DHT22;6283;51.330;12.374;2022-11-27T17:57:03;7.70;1.00
12438;DHT22;6283;51.330;12.374;2022-11-27T17:59:28;7.60;1.00
12438;DHT22;6283;51.330;12.374;2022-11-27T18:01:54;7.60;1.00
12438;DHT22;6283;51.330;12.374;2022-11-27T18:04:20;7.50;1.00
12438;DHT22;6283;51.330;12.374;2022-11-27T18:06:46;7.70;1.00